Capitol, South Carolina
Current Conditions -  °F | °C
As of 1:53 PM on Friday 31 Oct 2014 (Local Time) from KCUB Reporting Station
Clear Clear  
Wind Chill: 65°   Ceiling: Unl
Heat Index: 65°   Visibility: 10mi
Dew Point: 43°   Wind: 5mph
Humidity: 45%   Direction: 140°SE
Pressure: 29.85"   Gusts: NA
Location:  34.0004°N, 81.0344°W
Report Text: KCUB 311753Z AUTO 14004KT 10SM CLR 18/06 A2985 RMK AO2 SLP107 T01830061 10194 20089 58028
Loading
Personal Weather Stations






























Interactive Weather Map
Tropical Storm Tracking
New forecast layout! Learn more

10-Day Weather Forecast

Advertisements
Track Severe Weather on mobile